Time;durP1;ratioP1;P1;durP2;ratioP2;P2;SDS_P1;SDS_P2;PMS_P1;PMS_P2;Temp;Humidity;BMP_temperature;BMP_pressure;BME280_temperature;BME280_humidity;BME280_pressure;Samples;Min_cycle;Max_cycle;Signal;HPM_P1;HPM_P2
2022/03/07 00:00:49;;;;;;;7.75;4.18;;;5.20;57.30;;;;;;5109520;28;20118;-66
2022/03/07 00:03:15;;;;;;;6.18;3.88;;;5.10;57.30;;;;;;5109259;28;20039;-63
2022/03/07 00:05:41;;;;;;;5.20;4.05;;;5.10;57.30;;;;;;5101258;28;20489;-63
2022/03/07 00:08:07;;;;;;;6.85;4.50;;;5.10;57.30;;;;;;5072724;28;20363;-63
2022/03/07 00:10:33;;;;;;;5.32;4.10;;;5.10;57.40;;;;;;5109038;28;20023;-65
2022/03/07 00:12:59;;;;;;;5.40;4.03;;;5.00;57.50;;;;;;5108514;28;20020;-66
2022/03/07 00:15:24;;;;;;;5.15;4.00;;;5.00;57.40;;;;;;5084429;28;20094;-63
2022/03/07 00:17:50;;;;;;;5.50;4.30;;;5.00;57.60;;;;;;5109185;28;20036;-63
2022/03/07 00:20:16;;;;;;;5.78;4.13;;;4.90;57.60;;;;;;5090990;28;20055;-66
2022/03/07 00:22:42;;;;;;;6.20;4.03;;;4.90;58.40;;;;;;5108314;28;20040;-63
2022/03/07 00:25:08;;;;;;;9.25;4.55;;;4.80;57.70;;;;;;5109542;28;20051;-63
2022/03/07 00:27:34;;;;;;;7.20;4.20;;;4.80;57.70;;;;;;5108536;28;20027;-63
2022/03/07 00:30:00;;;;;;;6.22;4.30;;;4.80;57.90;;;;;;5090411;28;20403;-65
2022/03/07 00:32:26;;;;;;;4.85;3.60;;;4.70;57.80;;;;;;5106627;28;20066;-66
2022/03/07 00:34:52;;;;;;;4.90;3.60;;;4.70;58.00;;;;;;5109357;28;20259;-66
2022/03/07 00:37:18;;;;;;;6.53;4.45;;;4.60;58.20;;;;;;5107936;28;20019;-66
2022/03/07 00:39:43;;;;;;;6.45;4.40;;;4.60;58.20;;;;;;5120333;28;20040;-66
2022/03/07 00:42:09;;;;;;;5.88;3.97;;;4.60;58.50;;;;;;5094387;28;20031;-63
2022/03/07 00:44:35;;;;;;;5.32;4.32;;;4.50;58.50;;;;;;5090845;28;20051;-63
2022/03/07 00:47:00;;;;;;;7.60;4.20;;;4.50;58.60;;;;;;5108627;28;20047;-66
2022/03/07 00:49:26;;;;;;;5.35;4.00;;;4.40;58.60;;;;;;5089850;28;20048;-63
2022/03/07 00:51:52;;;;;;;5.70;4.40;;;4.40;58.70;;;;;;5108812;28;20032;-63
2022/03/07 00:54:17;;;;;;;6.70;4.32;;;4.30;58.80;;;;;;5108850;28;20379;-63
2022/03/07 00:56:43;;;;;;;6.47;4.10;;;4.30;59.00;;;;;;5107887;28;20272;-66
2022/03/07 00:59:09;;;;;;;6.88;4.70;;;4.20;59.10;;;;;;5108670;28;20028;-63
2022/03/07 01:01:34;;;;;;;6.30;4.38;;;4.20;59.30;;;;;;5107968;28;20035;-66
2022/03/07 01:04:01;;;;;;;7.15;4.15;;;4.20;59.40;;;;;;5108872;28;20042;-66
2022/03/07 01:06:26;;;;;;;6.72;4.30;;;4.20;59.50;;;;;;5107108;28;20034;-66
2022/03/07 01:08:52;;;;;;;7.18;4.88;;;4.20;59.60;;;;;;5108758;28;20494;-66
2022/03/07 01:11:18;;;;;;;6.00;4.22;;;4.10;59.60;;;;;;5108411;28;20039;-66
2022/03/07 01:13:43;;;;;;;6.97;4.35;;;4.10;59.60;;;;;;5105983;28;20123;-66
2022/03/07 01:16:09;;;;;;;5.47;4.45;;;4.10;59.70;;;;;;5108494;28;20046;-66
2022/03/07 01:18:35;;;;;;;6.13;4.05;;;4.10;59.80;;;;;;5108136;28;20542;-66
2022/03/07 01:21:00;;;;;;;7.55;4.38;;;4.00;59.80;;;;;;5073633;28;20049;-66
2022/03/07 01:23:26;;;;;;;9.00;5.57;;;4.00;59.90;;;;;;5107215;28;20023;-66
2022/03/07 01:25:52;;;;;;;6.43;4.78;;;4.00;60.00;;;;;;5109142;28;20015;-65
2022/03/07 01:28:18;;;;;;;6.13;4.43;;;4.00;60.10;;;;;;5107744;28;20016;-66
2022/03/07 01:30:43;;;;;;;7.32;5.20;;;3.90;60.10;;;;;;5108229;28;20047;-66
2022/03/07 01:33:09;;;;;;;7.88;5.05;;;3.90;60.20;;;;;;5107443;28;20548;-67
2022/03/07 01:35:35;;;;;;;8.15;4.68;;;3.90;60.30;;;;;;5108817;28;20050;-67
2022/03/07 01:38:00;;;;;;;6.18;5.07;;;3.80;60.30;;;;;;5108295;28;20467;-67
2022/03/07 01:40:26;;;;;;;7.38;4.93;;;3.80;60.40;;;;;;5107101;28;20343;-63
2022/03/07 01:42:52;;;;;;;8.00;5.18;;;3.80;60.50;;;;;;5094270;27;20428;-64
2022/03/07 01:45:19;;;;;;;6.38;5.10;;;3.80;60.60;;;;;;5122938;27;20031;-66
2022/03/07 01:47:46;;;;;;;6.75;4.93;;;3.70;60.60;;;;;;5125684;27;20050;-63
2022/03/07 01:50:14;;;;;;;7.32;4.70;;;3.70;60.60;;;;;;5093459;28;20055;-66
2022/03/07 01:52:42;;;;;;;5.95;4.75;;;3.70;60.70;;;;;;5110023;28;20107;-62
2022/03/07 01:55:09;;;;;;;7.80;5.18;;;3.70;60.70;;;;;;5107714;28;20122;-63
2022/03/07 01:57:39;;;;;;;6.88;5.05;;;3.70;60.90;;;;;;5097736;28;20032;-65
2022/03/07 02:00:09;;;;;;;7.28;5.22;;;3.60;61.00;;;;;;5112113;28;20466;-66
2022/03/07 02:02:34;;;;;;;7.68;5.03;;;3.60;61.10;;;;;;5093182;28;20019;-64
2022/03/07 02:05:00;;;;;;;7.05;5.00;;;3.60;61.20;;;;;;5111042;28;20654;-64
2022/03/07 02:07:26;;;;;;;7.82;5.35;;;3.60;61.20;;;;;;5111423;28;20494;-64
2022/03/07 02:09:52;;;;;;;7.38;5.15;;;3.60;61.30;;;;;;5093959;28;20027;-64
2022/03/07 02:12:18;;;;;;;10.05;5.40;;;3.50;61.20;;;;;;5091956;28;20031;-64
2022/03/07 02:14:44;;;;;;;7.40;5.15;;;3.50;61.30;;;;;;5107628;28;20032;-64
2022/03/07 02:17:09;;;;;;;6.78;5.35;;;3.50;61.40;;;;;;5111331;28;20026;-64
2022/03/07 02:19:36;;;;;;;7.15;5.38;;;3.40;61.60;;;;;;5092512;28;20040;-64
2022/03/07 02:22:04;;;;;;;7.07;5.43;;;3.40;61.80;;;;;;5110806;28;20522;-64
2022/03/07 02:24:29;;;;;;;7.70;5.45;;;3.40;61.80;;;;;;5112162;28;20031;-64
2022/03/07 02:27:01;;;;;;;7.53;5.47;;;3.40;61.80;;;;;;5111108;28;20036;-63
2022/03/07 02:29:27;;;;;;;10.40;5.90;;;3.30;61.80;;;;;;5111070;28;20039;-64
2022/03/07 02:31:53;;;;;;;9.40;5.82;;;3.30;61.90;;;;;;5100701;28;20047;-67
2022/03/07 02:34:19;;;;;;;7.18;5.25;;;3.30;62.00;;;;;;5111339;28;20028;-67
2022/03/07 02:36:45;;;;;;;6.80;5.47;;;3.30;62.10;;;;;;5110143;28;20032;-66
2022/03/07 02:39:11;;;;;;;9.00;6.40;;;3.20;62.20;;;;;;5111302;28;20039;-63
2022/03/07 02:41:38;;;;;;;7.78;5.97;;;3.20;62.20;;;;;;5091714;28;20028;-67
2022/03/07 02:44:04;;;;;;;8.65;5.72;;;3.20;62.30;;;;;;5111379;28;20409;-67
2022/03/07 02:46:30;;;;;;;7.90;5.43;;;3.20;62.40;;;;;;5092715;28;20126;-63
2022/03/07 02:48:55;;;;;;;9.55;6.22;;;3.20;62.40;;;;;;5116555;27;20179;-63
2022/03/07 02:51:21;;;;;;;8.25;5.85;;;3.10;62.50;;;;;;5097639;28;20039;-63
2022/03/07 02:53:47;;;;;;;9.93;6.15;;;3.10;62.50;;;;;;5110545;28;20043;-67
2022/03/07 02:56:12;;;;;;;8.05;6.05;;;3.10;62.60;;;;;;5110809;28;20031;-66
2022/03/07 02:58:38;;;;;;;8.27;5.82;;;3.10;62.70;;;;;;5109837;28;20028;-67
2022/03/07 03:01:04;;;;;;;10.88;6.70;;;3.10;62.70;;;;;;5111275;28;20031;-66
2022/03/07 03:03:30;;;;;;;8.32;5.53;;;3.00;62.70;;;;;;5091447;28;20020;-67
2022/03/07 03:05:56;;;;;;;8.18;6.15;;;3.00;62.80;;;;;;5108722;28;20451;-63
2022/03/07 03:08:22;;;;;;;8.88;6.13;;;3.00;62.90;;;;;;5110251;28;20043;-62
2022/03/07 03:10:53;;;;;;;10.63;6.63;;;3.00;63.00;;;;;;5091846;28;20035;-66
2022/03/07 03:13:22;;;;;;;9.43;6.28;;;3.00;63.10;;;;;;5091519;28;20051;-63
2022/03/07 03:15:48;;;;;;;9.07;6.45;;;2.90;63.00;;;;;;5110446;28;20024;-63
2022/03/07 03:18:15;;;;;;;9.93;6.65;;;2.90;63.10;;;;;;5091960;28;20032;-63
2022/03/07 03:20:42;;;;;;;9.68;7.03;;;2.90;63.20;;;;;;5108679;28;20026;-64
2022/03/07 03:23:08;;;;;;;10.30;7.05;;;2.90;63.20;;;;;;5104897;28;20034;-66
2022/03/07 03:25:34;;;;;;;8.43;6.43;;;2.80;63.20;;;;;;5105954;27;20103;-66
2022/03/07 03:27:59;;;;;;;9.60;6.78;;;2.80;63.20;;;;;;5123387;27;20028;-67
2022/03/07 03:30:25;;;;;;;9.65;6.32;;;2.80;63.30;;;;;;5095339;28;20040;-67
2022/03/07 03:32:51;;;;;;;9.93;6.70;;;2.80;63.40;;;;;;5105553;28;20113;-67
2022/03/07 03:35:16;;;;;;;9.40;6.95;;;2.80;63.50;;;;;;5106011;28;20024;-66
2022/03/07 03:37:42;;;;;;;8.10;6.47;;;2.70;63.50;;;;;;5107856;28;20047;-66
2022/03/07 03:40:11;;;;;;;10.10;6.53;;;2.60;63.50;;;;;;5108838;28;20459;-67
2022/03/07 03:42:37;;;;;;;8.82;6.72;;;2.60;63.70;;;;;;5104624;28;20031;-63
2022/03/07 03:45:05;;;;;;;12.10;7.13;;;2.60;63.80;;;;;;5108484;28;20036;-66
2022/03/07 03:47:32;;;;;;;10.38;6.88;;;2.60;63.90;;;;;;5109228;28;20086;-66
2022/03/07 03:49:58;;;;;;;10.20;6.63;;;2.60;64.10;;;;;;5106416;28;20100;-63
2022/03/07 03:52:24;;;;;;;9.73;6.80;;;2.60;64.20;;;;;;5109013;28;20040;-63
2022/03/07 03:54:50;;;;;;;10.05;7.30;;;2.50;64.10;;;;;;5117181;27;20109;-63
2022/03/07 03:57:15;;;;;;;12.70;6.95;;;2.50;64.20;;;;;;5109532;28;20028;-65
2022/03/07 03:59:41;;;;;;;10.65;7.07;;;2.50;64.20;;;;;;5090920;28;20059;-66
2022/03/07 04:02:07;;;;;;;9.15;6.65;;;2.50;64.20;;;;;;5108718;28;20027;-66
2022/03/07 04:04:33;;;;;;;13.48;7.15;;;2.50;64.30;;;;;;5091339;28;20378;-63
2022/03/07 04:06:59;;;;;;;10.40;6.78;;;2.40;64.40;;;;;;5109102;28;20435;-62
2022/03/07 04:09:25;;;;;;;11.18;6.80;;;2.40;64.50;;;;;;5109518;28;20473;-63
2022/03/07 04:11:51;;;;;;;10.25;7.00;;;2.40;64.50;;;;;;5108059;28;20450;-63
2022/03/07 04:14:17;;;;;;;11.13;7.22;;;2.30;64.50;;;;;;5109619;28;20024;-66
2022/03/07 04:16:43;;;;;;;10.13;7.32;;;2.30;64.50;;;;;;5109693;28;20023;-66
2022/03/07 04:19:11;;;;;;;9.68;6.63;;;2.30;64.50;;;;;;5109731;28;20019;-63
2022/03/07 04:21:39;;;;;;;10.93;6.95;;;2.30;64.60;;;;;;5107982;28;20031;-64
2022/03/07 04:24:05;;;;;;;10.50;7.32;;;2.30;64.60;;;;;;5109040;28;20035;-63
2022/03/07 04:26:32;;;;;;;11.23;6.80;;;2.30;64.70;;;;;;5090639;28;20027;-63
2022/03/07 04:28:57;;;;;;;9.55;6.95;;;2.30;64.70;;;;;;5105909;28;20141;-64
2022/03/07 04:31:23;;;;;;;11.50;6.70;;;2.20;64.70;;;;;;5088295;28;20461;-63
2022/03/07 04:33:49;;;;;;;11.10;7.05;;;2.20;64.80;;;;;;5096217;28;20077;-63
2022/03/07 04:36:18;;;;;;;10.00;7.40;;;2.20;64.90;;;;;;5093454;28;20028;-63
2022/03/07 04:38:44;;;;;;;11.02;7.53;;;2.20;65.00;;;;;;5093595;28;20043;-63
2022/03/07 04:41:10;;;;;;;13.35;7.35;;;2.10;65.00;;;;;;5109001;28;20024;-64
2022/03/07 04:43:36;;;;;;;10.70;7.68;;;2.10;65.10;;;;;;5089862;28;20124;-66
2022/03/07 04:46:02;;;;;;;10.25;7.65;;;2.10;65.30;;;;;;5107774;28;20062;-63
2022/03/07 04:48:27;;;;;;;11.18;7.53;;;2.10;65.30;;;;;;5108718;28;20073;-63
2022/03/07 04:50:53;;;;;;;13.05;7.63;;;2.10;65.40;;;;;;5108495;28;20032;-63
2022/03/07 04:53:19;;;;;;;10.40;7.40;;;2.00;65.40;;;;;;5107324;28;20077;-66
2022/03/07 04:55:44;;;;;;;10.35;7.18;;;2.00;65.30;;;;;;5107966;28;20118;-66
2022/03/07 04:58:10;;;;;;;11.75;7.65;;;2.00;65.40;;;;;;5110067;28;20038;-67
2022/03/07 05:00:36;;;;;;;10.07;7.50;;;2.00;65.50;;;;;;5120421;28;20035;-63
2022/03/07 05:03:01;;;;;;;13.15;7.65;;;2.00;66.30;;;;;;5104545;28;20442;-62
2022/03/07 05:05:27;;;;;;;10.85;8.02;;;1.90;65.90;;;;;;5107122;28;20038;-66
2022/03/07 05:07:53;;;;;;;12.43;7.53;;;1.90;65.90;;;;;;5109214;28;20031;-67
2022/03/07 05:10:20;;;;;;;11.70;7.05;;;1.90;66.00;;;;;;5073842;28;20027;-66
2022/03/07 05:12:47;;;;;;;13.45;8.05;;;1.90;66.10;;;;;;5107309;28;20517;-66
2022/03/07 05:15:12;;;;;;;11.77;7.32;;;1.80;66.00;;;;;;5090174;28;20056;-67
2022/03/07 05:17:51;;;;;;;11.30;7.35;;;1.80;66.10;;;;;;5108489;27;20411;-66
2022/03/07 05:20:17;;;;;;;11.73;7.50;;;1.80;66.70;;;;;;5113078;28;20072;-66
2022/03/07 05:22:44;;;;;;;11.75;6.97;;;1.80;66.10;;;;;;5111823;28;20027;-66
2022/03/07 05:25:11;;;;;;;11.23;7.78;;;1.80;66.20;;;;;;5113237;28;20030;-67
2022/03/07 05:27:38;;;;;;;12.48;8.07;;;1.80;66.30;;;;;;5112190;28;20118;-66
2022/03/07 05:30:05;;;;;;;12.02;8.00;;;1.70;66.40;;;;;;5111793;28;20111;-66
2022/03/07 05:32:31;;;;;;;11.50;7.70;;;1.70;66.50;;;;;;5092614;28;20059;-66
2022/03/07 05:34:58;;;;;;;10.77;7.55;;;1.70;66.60;;;;;;5106646;27;20031;-67
2022/03/07 05:37:23;;;;;;;12.63;8.30;;;1.70;66.70;;;;;;5087529;28;20146;-67
2022/03/07 05:39:49;;;;;;;10.68;7.75;;;1.60;66.80;;;;;;5097516;28;20115;-66
2022/03/07 05:42:15;;;;;;;13.70;7.93;;;1.60;66.90;;;;;;5111454;28;20371;-66
2022/03/07 05:44:41;;;;;;;14.00;7.85;;;1.60;67.10;;;;;;5111451;28;20502;-66
2022/03/07 05:47:08;;;;;;;10.23;7.60;;;1.60;67.10;;;;;;5094072;28;20088;-67
2022/03/07 05:49:34;;;;;;;12.60;7.60;;;1.50;67.10;;;;;;5112329;28;20031;-66
2022/03/07 05:52:00;;;;;;;11.63;8.15;;;1.50;67.10;;;;;;5111712;28;20488;-66
2022/03/07 05:54:25;;;;;;;12.00;7.82;;;1.50;67.10;;;;;;5110561;28;20028;-66
2022/03/07 05:56:51;;;;;;;13.60;7.97;;;1.50;67.00;;;;;;5093581;28;20420;-66
2022/03/07 05:59:17;;;;;;;11.55;7.65;;;1.50;67.10;;;;;;5112382;28;20518;-66
2022/03/07 06:01:42;;;;;;;13.73;7.90;;;1.50;67.10;;;;;;5111386;28;20397;-67
2022/03/07 06:04:09;;;;;;;10.05;7.78;;;1.50;67.10;;;;;;5118034;27;20389;-66
2022/03/07 06:06:35;;;;;;;11.82;7.82;;;1.40;67.20;;;;;;5113525;27;20042;-66
2022/03/07 06:09:01;;;;;;;11.63;8.13;;;1.40;67.40;;;;;;5112061;28;20055;-66
2022/03/07 06:11:26;;;;;;;15.25;8.48;;;1.40;67.50;;;;;;5085272;28;20068;-66
2022/03/07 06:13:52;;;;;;;11.30;7.90;;;1.40;67.50;;;;;;5091704;28;20046;-67
2022/03/07 06:16:18;;;;;;;13.15;8.57;;;1.40;67.70;;;;;;5103326;28;20054;-63
2022/03/07 06:18:44;;;;;;;13.82;8.27;;;1.40;67.70;;;;;;5111530;28;20390;-63
2022/03/07 06:21:09;;;;;;;12.73;8.48;;;1.40;67.70;;;;;;5093295;28;20088;-67
2022/03/07 06:23:36;;;;;;;10.55;7.93;;;1.40;67.80;;;;;;5111717;28;20028;-67
2022/03/07 06:26:04;;;;;;;12.65;7.57;;;1.40;67.70;;;;;;5111217;28;20165;-67
2022/03/07 06:28:30;;;;;;;10.73;8.23;;;1.40;67.90;;;;;;5103311;28;20398;-63
2022/03/07 06:30:56;;;;;;;9.88;8.27;;;1.40;67.90;;;;;;5105481;28;20051;-63
2022/03/07 06:33:22;;;;;;;13.50;9.13;;;1.40;68.10;;;;;;5111494;28;20063;-64
2022/03/07 06:35:47;;;;;;;15.68;8.23;;;1.40;68.20;;;;;;5111371;28;20032;-67
2022/03/07 06:38:13;;;;;;;13.88;8.50;;;1.40;68.20;;;;;;5111046;28;20061;-66
2022/03/07 06:40:39;;;;;;;11.68;7.97;;;1.40;68.30;;;;;;5111096;28;20055;-66
2022/03/07 06:43:04;;;;;;;11.93;7.82;;;1.40;68.30;;;;;;5110175;28;20486;-63
2022/03/07 06:45:30;;;;;;;12.57;7.97;;;1.40;68.40;;;;;;5092304;28;20474;-63
2022/03/07 06:47:56;;;;;;;11.38;8.02;;;1.40;68.50;;;;;;5092309;28;20074;-66
2022/03/07 06:50:23;;;;;;;11.48;8.05;;;1.40;68.60;;;;;;5110789;28;20509;-66
2022/03/07 06:52:48;;;;;;;10.40;8.00;;;1.40;69.40;;;;;;5092023;28;20107;-66
2022/03/07 06:55:15;;;;;;;11.02;7.68;;;1.50;68.90;;;;;;5114052;27;20114;-66
2022/03/07 06:57:41;;;;;;;10.75;7.78;;;1.50;69.00;;;;;;5092894;28;20024;-66
2022/03/07 07:00:16;;;;;;;12.00;7.93;;;1.50;69.10;;;;;;5092079;28;20036;-63
2022/03/07 07:02:42;;;;;;;11.13;8.43;;;1.50;69.20;;;;;;5109812;28;20089;-66
2022/03/07 07:05:08;;;;;;;11.63;7.95;;;1.50;69.30;;;;;;5110951;28;20115;-66
2022/03/07 07:07:35;;;;;;;10.05;7.97;;;1.50;69.60;;;;;;5110149;28;20023;-65
2022/03/07 07:10:00;;;;;;;12.07;8.10;;;1.50;69.60;;;;;;5109515;28;20023;-63
2022/03/07 07:12:26;;;;;;;12.35;8.70;;;1.50;69.70;;;;;;5109253;28;20035;-66
2022/03/07 07:14:52;;;;;;;12.85;9.27;;;1.50;69.80;;;;;;5111031;28;20016;-66
2022/03/07 07:17:18;;;;;;;11.55;8.07;;;1.50;70.50;;;;;;5108097;28;20285;-65
2022/03/07 07:19:44;;;;;;;12.40;8.55;;;1.50;70.00;;;;;;5089645;28;20039;-65
2022/03/07 07:22:10;;;;;;;15.18;9.23;;;1.60;70.20;;;;;;5090174;28;20036;-65
2022/03/07 07:24:36;;;;;;;11.85;8.80;;;1.60;70.20;;;;;;5108231;28;20096;-65
2022/03/07 07:27:02;;;;;;;12.65;8.02;;;1.60;70.30;;;;;;5113256;27;20019;-66
2022/03/07 07:29:28;;;;;;;13.43;8.77;;;1.60;70.40;;;;;;5112117;27;20045;-65
2022/03/07 07:31:53;;;;;;;10.80;8.77;;;1.70;70.50;;;;;;5095459;27;20502;-65
2022/03/07 07:34:20;;;;;;;12.52;9.07;;;1.70;70.70;;;;;;5118300;27;20111;-65
2022/03/07 07:36:47;;;;;;;14.57;9.00;;;1.70;70.60;;;;;;5088540;28;20039;-65
2022/03/07 07:39:12;;;;;;;13.75;8.10;;;1.80;70.80;;;;;;5118166;27;20034;-66
2022/03/07 07:41:38;;;;;;;11.32;8.20;;;1.80;70.80;;;;;;5108150;27;20036;-66
2022/03/07 07:44:04;;;;;;;10.63;8.00;;;1.90;70.70;;;;;;5109446;28;20106;-66
2022/03/07 07:46:30;;;;;;;9.13;7.75;;;2.00;70.80;;;;;;5111308;27;20031;-66
2022/03/07 07:48:56;;;;;;;9.93;7.90;;;2.00;70.70;;;;;;5108366;28;20043;-65
2022/03/07 07:51:22;;;;;;;9.85;7.65;;;2.10;70.70;;;;;;5108619;28;20034;-65
2022/03/07 07:53:48;;;;;;;9.15;7.13;;;2.20;70.60;;;;;;5107402;28;20110;-66
2022/03/07 07:56:14;;;;;;;11.68;7.15;;;2.30;70.60;;;;;;5108399;28;20118;-65
2022/03/07 07:58:40;;;;;;;9.52;7.15;;;2.30;70.50;;;;;;5108478;27;20029;-66
2022/03/07 08:01:05;;;;;;;11.32;7.18;;;2.40;70.40;;;;;;5107042;28;20038;-65
2022/03/07 08:03:31;;;;;;;10.07;7.72;;;2.50;70.40;;;;;;5112879;27;20031;-65
2022/03/07 08:05:57;;;;;;;9.38;6.30;;;2.60;70.30;;;;;;5116723;27;20027;-65
2022/03/07 08:08:23;;;;;;;9.73;6.97;;;2.70;70.30;;;;;;5107830;28;20039;-65
2022/03/07 08:10:49;;;;;;;8.98;6.63;;;2.80;70.10;;;;;;5107503;28;20043;-65
2022/03/07 08:13:14;;;;;;;9.95;6.55;;;2.80;69.90;;;;;;5113843;27;20031;-65
2022/03/07 08:15:40;;;;;;;10.40;6.68;;;3.00;69.70;;;;;;5090753;28;20085;-65
2022/03/07 08:18:07;;;;;;;9.75;6.85;;;3.00;69.50;;;;;;5091911;27;20045;-64
2022/03/07 08:20:34;;;;;;;10.65;7.43;;;3.10;69.40;;;;;;5117852;27;20106;-65
2022/03/07 08:23:00;;;;;;;8.93;6.28;;;3.20;69.20;;;;;;5111031;27;20080;-65
2022/03/07 08:25:26;;;;;;;8.85;7.15;;;3.20;69.00;;;;;;5108675;28;20420;-65
2022/03/07 08:27:52;;;;;;;9.50;7.15;;;3.30;69.00;;;;;;5106656;27;20047;-65
2022/03/07 08:30:21;;;;;;;11.35;7.10;;;3.30;68.80;;;;;;5089102;28;20027;-65
2022/03/07 08:32:47;;;;;;;9.25;6.47;;;3.40;68.60;;;;;;5108419;28;20050;-65
2022/03/07 08:35:14;;;;;;;7.78;6.53;;;3.50;68.40;;;;;;5106322;28;20020;-65
2022/03/07 08:37:41;;;;;;;9.85;7.28;;;3.60;68.40;;;;;;5104667;28;20019;-66
2022/03/07 08:40:08;;;;;;;10.10;6.28;;;3.60;68.00;;;;;;5104321;28;20065;-66
2022/03/07 08:42:34;;;;;;;9.55;6.63;;;3.70;67.80;;;;;;5106385;28;20055;-66
2022/03/07 08:45:00;;;;;;;8.77;6.40;;;3.70;67.50;;;;;;5106066;28;20023;-66
2022/03/07 08:47:26;;;;;;;8.88;6.55;;;3.80;67.30;;;;;;5101991;28;20375;-65
2022/03/07 08:49:53;;;;;;;8.57;6.20;;;3.90;67.20;;;;;;5112200;28;20024;-65
2022/03/07 08:52:19;;;;;;;8.18;6.60;;;3.90;66.80;;;;;;5113756;27;20527;-66
2022/03/07 08:54:46;;;;;;;9.82;6.25;;;4.00;66.60;;;;;;5111616;28;20047;-66
2022/03/07 08:57:12;;;;;;;8.50;6.20;;;4.10;66.40;;;;;;5112853;27;20106;-64
2022/03/07 08:59:38;;;;;;;8.13;5.63;;;4.10;66.20;;;;;;5122014;27;20122;-64
2022/03/07 09:02:04;;;;;;;8.05;5.75;;;4.20;66.00;;;;;;5110508;28;20020;-65
2022/03/07 09:04:30;;;;;;;6.90;5.28;;;4.30;65.70;;;;;;5111708;27;20032;-65
2022/03/07 09:06:55;;;;;;;7.07;5.00;;;4.40;65.30;;;;;;5113036;27;20092;-64
2022/03/07 09:09:21;;;;;;;7.05;5.47;;;4.50;64.90;;;;;;5094270;28;20043;-63
2022/03/07 09:11:48;;;;;;;6.72;5.15;;;4.50;64.60;;;;;;5110760;27;20032;-64
2022/03/07 09:14:14;;;;;;;7.07;4.97;;;4.60;64.20;;;;;;5094279;28;20036;-65
2022/03/07 09:16:42;;;;;;;7.05;5.35;;;4.70;64.00;;;;;;5083236;28;20069;-65
2022/03/07 09:19:08;;;;;;;6.35;5.30;;;4.80;63.60;;;;;;5112177;27;20024;-64
2022/03/07 09:21:34;;;;;;;7.53;5.57;;;4.90;63.20;;;;;;5123005;27;20058;-65
2022/03/07 09:24:00;;;;;;;7.95;5.40;;;5.00;62.90;;;;;;5119547;27;20088;-64
2022/03/07 09:26:26;;;;;;;7.30;5.15;;;5.10;62.40;;;;;;5112278;28;20053;-64
2022/03/07 09:28:52;;;;;;;6.03;5.35;;;5.20;62.30;;;;;;5112453;28;20027;-65
2022/03/07 09:31:18;;;;;;;6.07;4.88;;;5.30;61.90;;;;;;5111926;28;20055;-66
2022/03/07 09:33:44;;;;;;;6.70;5.32;;;5.30;61.60;;;;;;5112260;28;20028;-66
2022/03/07 09:36:09;;;;;;;6.10;4.78;;;5.40;60.20;;;;;;5097690;28;20035;-66
2022/03/07 09:38:36;;;;;;;6.78;4.32;;;5.40;59.60;;;;;;5076039;28;20042;-64
2022/03/07 09:41:03;;;;;;;6.25;4.38;;;5.40;59.50;;;;;;5111788;28;20024;-64
2022/03/07 09:43:28;;;;;;;6.72;4.75;;;5.40;59.30;;;;;;5112111;28;20031;-64
2022/03/07 09:45:54;;;;;;;10.18;5.30;;;5.40;59.70;;;;;;5104792;27;20031;-65
2022/03/07 09:48:24;;;;;;;10.52;4.88;;;5.50;59.00;;;;;;5113407;27;20503;-66
2022/03/07 09:50:51;;;;;;;6.20;4.35;;;5.50;59.00;;;;;;5108416;28;20032;-66
2022/03/07 09:53:17;;;;;;;6.30;4.60;;;5.60;58.50;;;;;;5110579;28;20059;-64
2022/03/07 09:55:47;;;;;;;4.97;4.00;;;5.70;58.30;;;;;;5110351;28;20015;-65
2022/03/07 09:58:13;;;;;;;5.43;3.58;;;5.80;57.80;;;;;;5111290;28;20072;-64
2022/03/07 10:00:41;;;;;;;5.07;3.88;;;5.90;57.40;;;;;;5110861;28;20077;-64
2022/03/07 10:03:11;;;;;;;5.35;3.90;;;5.90;58.00;;;;;;5073208;28;20043;-64
2022/03/07 10:05:39;;;;;;;5.82;4.07;;;6.10;57.30;;;;;;5106325;28;20428;-64
2022/03/07 10:08:06;;;;;;;7.50;4.55;;;6.10;57.10;;;;;;5087362;28;20034;-64
2022/03/07 10:10:35;;;;;;;6.10;4.35;;;6.30;56.30;;;;;;5078514;28;20040;-64
2022/03/07 10:13:11;;;;;;;5.97;4.30;;;6.30;55.90;;;;;;5101144;28;20036;-64
2022/03/07 10:15:38;;;;;;;4.50;3.40;;;6.40;56.10;;;;;;5109812;28;20020;-64
2022/03/07 10:18:04;;;;;;;6.28;4.43;;;6.50;56.30;;;;;;5105131;28;20145;-66
2022/03/07 10:20:31;;;;;;;4.65;4.13;;;6.60;56.10;;;;;;5110148;28;20031;-66
2022/03/07 10:22:59;;;;;;;5.40;4.25;;;6.80;56.00;;;;;;5093264;28;20398;-66
2022/03/07 10:25:32;;;;;;;6.00;4.00;;;6.90;55.60;;;;;;5111635;28;20054;-66
2022/03/07 10:28:00;;;;;;;;;;;7.10;55.50;;;;;;5106923;28;20381;-67
2022/03/07 10:30:28;;;;;;;9.55;4.68;;;7.20;55.40;;;;;;5110950;28;20282;-65
2022/03/07 10:33:03;;;;;;;7.07;4.45;;;7.20;54.50;;;;;;5110609;28;20052;-64
2022/03/07 10:35:41;;;;;;;5.50;4.38;;;7.20;53.60;;;;;;5090724;28;20024;-66
2022/03/07 10:38:11;;;;;;;6.97;4.72;;;7.20;54.00;;;;;;5092148;28;20513;-63
2022/03/07 10:40:40;;;;;;;5.25;4.07;;;7.30;54.10;;;;;;5110754;28;20471;-64
2022/03/07 10:43:07;;;;;;;6.38;5.10;;;7.40;54.30;;;;;;5090718;28;20578;-64
2022/03/07 10:45:46;;;;;;;6.82;4.90;;;7.50;53.90;;;;;;5124965;27;20019;-63
2022/03/07 10:48:11;;;;;;;7.97;4.60;;;7.60;53.60;;;;;;5118846;27;20035;-64
2022/03/07 10:50:37;;;;;;;6.13;4.65;;;7.60;53.40;;;;;;5110306;28;20378;-66
2022/03/07 10:53:05;;;;;;;8.77;4.60;;;7.70;53.40;;;;;;5110185;28;20105;-66
2022/03/07 10:55:32;;;;;;;5.47;4.90;;;7.70;53.30;;;;;;5109383;28;20343;-66
2022/03/07 10:58:12;;;;;;;6.65;4.47;;;7.80;53.00;;;;;;5107708;28;20470;-66
2022/03/07 11:00:54;;;;;;;5.35;4.53;;;7.90;52.70;;;;;;5104552;28;20046;-66
2022/03/07 11:03:31;;;;;;;6.57;4.70;;;8.00;52.50;;;;;;5110995;27;20366;-66
2022/03/07 11:05:58;;;;;;;5.78;4.40;;;8.10;52.00;;;;;;5092370;28;20342;-65
2022/03/07 11:08:24;;;;;;;6.00;5.40;;;8.20;52.00;;;;;;5110646;28;20474;-64
2022/03/07 11:10:52;;;;;;;8.00;5.10;;;8.20;51.80;;;;;;5110212;28;20076;-64
2022/03/07 11:13:20;;;;;;;7.53;5.20;;;8.30;51.90;;;;;;5109480;28;20024;-64
2022/03/07 11:15:47;;;;;;;6.10;5.13;;;8.30;51.80;;;;;;5099274;28;20296;-65
2022/03/07 11:18:15;;;;;;;6.78;5.28;;;8.40;51.70;;;;;;5110392;28;20130;-66
2022/03/07 11:20:43;;;;;;;8.45;5.18;;;8.60;51.80;;;;;;5109317;28;20018;-65
2022/03/07 11:23:13;;;;;;;7.75;5.85;;;8.70;51.70;;;;;;5093722;28;20023;-66
2022/03/07 11:25:40;;;;;;;7.78;4.97;;;8.80;51.40;;;;;;5109648;28;20030;-66
2022/03/07 11:28:06;;;;;;;7.10;5.57;;;9.00;51.10;;;;;;5109496;28;20051;-66
2022/03/07 11:30:42;;;;;;;6.35;5.00;;;9.10;51.10;;;;;;5093291;27;20044;-65
2022/03/07 11:33:13;;;;;;;6.63;5.10;;;9.20;51.00;;;;;;5103860;28;20497;-65
2022/03/07 11:35:50;;;;;;;7.35;5.40;;;9.20;50.90;;;;;;5110146;28;20446;-65
2022/03/07 11:38:22;;;;;;;7.88;5.43;;;9.40;50.90;;;;;;5110048;28;20363;-64
2022/03/07 11:41:09;;;;;;;6.15;4.72;;;9.50;50.20;;;;;;5110134;28;20082;-64
2022/03/07 11:43:51;;;;;;;6.50;4.78;;;9.50;50.40;;;;;;5110589;28;20031;-64
2022/03/07 11:46:29;;;;;;;5.90;5.30;;;9.60;50.40;;;;;;5110670;28;20054;-63
2022/03/07 11:48:55;;;;;;;6.65;4.63;;;9.70;50.50;;;;;;5110336;28;20031;-64
2022/03/07 11:51:26;;;;;;;7.25;5.38;;;9.80;50.40;;;;;;5110354;28;20089;-64
2022/03/07 11:53:53;;;;;;;5.97;5.13;;;9.90;50.20;;;;;;5119548;27;20031;-64
2022/03/07 11:56:23;;;;;;;7.00;5.22;;;10.00;50.00;;;;;;5126524;27;20473;-64
2022/03/07 11:58:53;;;;;;;8.38;5.28;;;10.20;50.00;;;;;;5114354;27;20727;-64
2022/03/07 12:01:21;;;;;;;8.05;5.40;;;10.40;50.00;;;;;;5112067;27;20023;-63
2022/03/07 12:03:47;;;;;;;7.88;6.25;;;10.60;49.70;;;;;;5105125;27;20713;-64
2022/03/07 12:06:16;;;;;;;8.25;6.22;;;10.80;49.50;;;;;;5110775;28;20049;-65
2022/03/07 12:08:49;;;;;;;7.82;5.80;;;11.00;49.30;;;;;;5091617;28;20078;-64
2022/03/07 12:11:31;;;;;;;7.88;5.80;;;11.20;48.70;;;;;;5091550;28;20028;-65
2022/03/07 12:14:02;;;;;;;7.05;5.95;;;11.30;48.90;;;;;;5093509;27;20450;-67
2022/03/07 12:16:40;;;;;;;7.70;5.80;;;11.40;48.40;;;;;;5108361;28;20024;-67
2022/03/07 12:19:10;;;;;;;6.15;5.38;;;11.20;48.50;;;;;;5105396;28;20023;-67
2022/03/07 12:21:46;;;;;;;7.07;5.40;;;11.10;48.90;;;;;;5085982;28;20034;-67
2022/03/07 12:24:14;;;;;;;8.27;6.03;;;11.10;49.10;;;;;;5109261;28;20016;-67
2022/03/07 12:26:47;;;;;;;7.22;5.50;;;11.20;48.80;;;;;;5093228;28;20032;-66
2022/03/07 12:29:14;;;;;;;8.18;5.22;;;11.30;48.50;;;;;;5086159;28;20036;-63
2022/03/07 12:31:48;;;;;;;6.70;4.72;;;11.40;48.30;;;;;;5103326;28;20039;-63
2022/03/07 12:34:25;;;;;;;7.22;4.72;;;11.40;48.10;;;;;;5096861;28;20058;-66
2022/03/07 12:37:11;;;;;;;6.43;5.20;;;11.50;48.00;;;;;;5089675;28;20027;-65
2022/03/07 12:39:51;;;;;;;7.35;4.32;;;11.60;47.30;;;;;;5091889;28;20039;-65
2022/03/07 12:42:24;;;;;;;5.70;4.38;;;11.60;47.00;;;;;;5105002;28;20035;-64
2022/03/07 12:44:50;;;;;;;;;;;11.50;46.70;;;;;;5091937;28;20036;-63
2022/03/07 12:47:20;;;;;;;5.43;4.22;;;11.50;46.80;;;;;;5089652;28;20048;-62
2022/03/07 12:49:50;;;;;;;6.63;4.55;;;11.50;47.20;;;;;;5087985;28;20126;-64
2022/03/07 12:52:33;;;;;;;6.93;4.70;;;11.60;47.10;;;;;;5093254;28;20754;-63